sensor_id;sensor_type;location;lat;lon;timestamp;pressure;altitude;pressure_sealevel;temperature;humidity
10476;BME280;26166;48.264;11.436;2023-06-14T00:02:39;95746.88;;;18.45;41.17
10476;BME280;26166;48.264;11.436;2023-06-14T00:05:39;95749.53;;;18.45;41.25
10476;BME280;26166;48.264;11.436;2023-06-14T00:08:42;95746.88;;;18.45;41.30
10476;BME280;26166;48.264;11.436;2023-06-14T00:11:43;95738.09;;;18.44;41.29
10476;BME280;26166;48.264;11.436;2023-06-14T00:14:43;95744.69;;;18.41;41.43
10476;BME280;26166;48.264;11.436;2023-06-14T00:17:44;95748.16;;;18.42;41.37
10476;BME280;26166;48.264;11.436;2023-06-14T00:20:47;95746.75;;;18.39;41.32
10476;BME280;26166;48.264;11.436;2023-06-14T00:23:47;95744.09;;;18.39;41.28
10476;BME280;26166;48.264;11.436;2023-06-14T00:26:47;95743.31;;;18.39;41.32
10476;BME280;26166;48.264;11.436;2023-06-14T00:29:47;95741.69;;;18.38;41.36
10476;BME280;26166;48.264;11.436;2023-06-14T00:32:48;95739.84;;;18.38;41.31
10476;BME280;26166;48.264;11.436;2023-06-14T00:35:48;95742.50;;;18.38;41.43
10476;BME280;26166;48.264;11.436;2023-06-14T00:38:48;95743.53;;;18.37;41.46
10476;BME280;26166;48.264;11.436;2023-06-14T00:41:48;95739.22;;;18.36;41.37
10476;BME280;26166;48.264;11.436;2023-06-14T00:44:48;95738.44;;;18.36;41.44
10476;BME280;26166;48.264;11.436;2023-06-14T00:47:49;95742.13;;;18.35;41.50
10476;BME280;26166;48.264;11.436;2023-06-14T00:50:52;95739.47;;;18.35;41.49
10476;BME280;26166;48.264;11.436;2023-06-14T00:53:53;95737.84;;;18.34;41.50
10476;BME280;26166;48.264;11.436;2023-06-14T00:56:53;95746.66;;;18.34;41.44
10476;BME280;26166;48.264;11.436;2023-06-14T00:59:53;95745.03;;;18.33;41.45
10476;BME280;26166;48.264;11.436;2023-06-14T01:02:55;95741.78;;;18.31;41.50
10476;BME280;26166;48.264;11.436;2023-06-14T01:05:59;95747.09;;;18.31;41.48
10476;BME280;26166;48.264;11.436;2023-06-14T01:12:20;95740.97;;;18.31;41.47
10476;BME280;26166;48.264;11.436;2023-06-14T01:15:21;95736.44;;;18.31;41.51
10476;BME280;26166;48.264;11.436;2023-06-14T01:18:21;95735.66;;;18.31;41.54
10476;BME280;26166;48.264;11.436;2023-06-14T01:21:24;95733.00;;;18.31;41.54
10476;BME280;26166;48.264;11.436;2023-06-14T01:24:24;95733.78;;;18.31;41.65
10476;BME280;26166;48.264;11.436;2023-06-14T01:27:25;95728.72;;;18.30;41.61
10476;BME280;26166;48.264;11.436;2023-06-14T01:30:28;95733.22;;;18.29;41.62
10476;BME280;26166;48.264;11.436;2023-06-14T01:33:29;95732.41;;;18.29;41.64
10476;BME280;26166;48.264;11.436;2023-06-14T01:36:30;95727.09;;;18.29;41.65
10476;BME280;26166;48.264;11.436;2023-06-14T01:39:31;95726.28;;;18.28;41.65
10476;BME280;26166;48.264;11.436;2023-06-14T01:42:33;95727.31;;;18.27;41.82
10476;BME280;26166;48.264;11.436;2023-06-14T01:45:33;95731.00;;;18.26;41.88
10476;BME280;26166;48.264;11.436;2023-06-14T01:48:34;95725.13;;;18.24;41.92
10476;BME280;26166;48.264;11.436;2023-06-14T01:51:35;95725.13;;;18.24;41.93
10476;BME280;26166;48.264;11.436;2023-06-14T01:54:35;95720.81;;;18.23;41.98
10476;BME280;26166;48.264;11.436;2023-06-14T01:57:41;95720.81;;;18.23;42.03
10476;BME280;26166;48.264;11.436;2023-06-14T02:00:41;95730.88;;;18.21;42.12
10476;BME280;26166;48.264;11.436;2023-06-14T02:03:43;95730.28;;;18.19;42.15
10476;BME280;26166;48.264;11.436;2023-06-14T02:06:44;95720.69;;;18.18;42.21
10476;BME280;26166;48.264;11.436;2023-06-14T02:09:45;95727.88;;;18.18;42.19
10476;BME280;26166;48.264;11.436;2023-06-14T02:12:45;95724.63;;;18.15;42.31
10476;BME280;26166;48.264;11.436;2023-06-14T02:15:45;95726.50;;;18.15;42.38
10476;BME280;26166;48.264;11.436;2023-06-14T02:18:46;95721.19;;;18.15;42.34
10476;BME280;26166;48.264;11.436;2023-06-14T02:21:47;95721.19;;;18.15;42.28
10476;BME280;26166;48.264;11.436;2023-06-14T02:24:47;95721.19;;;18.15;42.45
10476;BME280;26166;48.264;11.436;2023-06-14T02:27:47;95716.88;;;18.14;42.43
10476;BME280;26166;48.264;11.436;2023-06-14T02:30:47;95717.91;;;18.13;42.48
10476;BME280;26166;48.264;11.436;2023-06-14T02:33:47;95720.81;;;18.11;42.50
10476;BME280;26166;48.264;11.436;2023-06-14T02:36:48;95722.66;;;18.11;42.41
10476;BME280;26166;48.264;11.436;2023-06-14T02:39:48;95714.69;;;18.11;42.51
10476;BME280;26166;48.264;11.436;2023-06-14T02:42:48;95718.16;;;18.11;42.48
10476;BME280;26166;48.264;11.436;2023-06-14T02:45:48;95721.03;;;18.10;42.38
10476;BME280;26166;48.264;11.436;2023-06-14T02:48:48;95721.03;;;18.10;42.40
10476;BME280;26166;48.264;11.436;2023-06-14T02:51:49;95724.47;;;18.10;42.37
10476;BME280;26166;48.264;11.436;2023-06-14T02:54:49;95726.56;;;18.08;42.43
10476;BME280;26166;48.264;11.436;2023-06-14T02:57:49;95718.84;;;18.07;42.36
10476;BME280;26166;48.264;11.436;2023-06-14T03:00:49;95715.38;;;18.06;42.42
10476;BME280;26166;48.264;11.436;2023-06-14T03:03:49;95729.47;;;18.07;42.43
10476;BME280;26166;48.264;11.436;2023-06-14T03:06:50;95727.81;;;18.06;42.36
10476;BME280;26166;48.264;11.436;2023-06-14T03:09:50;95730.94;;;18.03;42.33
10476;BME280;26166;48.264;11.436;2023-06-14T03:12:50;95728.28;;;18.03;42.28
10476;BME280;26166;48.264;11.436;2023-06-14T03:15:51;95722.97;;;18.03;42.24
10476;BME280;26166;48.264;11.436;2023-06-14T03:18:51;95730.94;;;18.03;42.17
10476;BME280;26166;48.264;11.436;2023-06-14T03:21:52;95739.97;;;18.02;42.19
10476;BME280;26166;48.264;11.436;2023-06-14T03:24:53;95746.28;;;18.01;42.13
10476;BME280;26166;48.264;11.436;2023-06-14T03:27:54;95750.00;;;18.00;42.26
10476;BME280;26166;48.264;11.436;2023-06-14T03:30:54;95750.81;;;18.00;42.13
10476;BME280;26166;48.264;11.436;2023-06-14T03:33:54;95746.53;;;17.99;42.11
10476;BME280;26166;48.264;11.436;2023-06-14T03:36:55;95752.88;;;17.98;42.16
10476;BME280;26166;48.264;11.436;2023-06-14T03:39:55;95757.41;;;17.98;42.26
10476;BME280;26166;48.264;11.436;2023-06-14T03:42:55;95756.56;;;17.97;42.20
10476;BME280;26166;48.264;11.436;2023-06-14T03:45:55;95752.28;;;17.96;42.27
10476;BME280;26166;48.264;11.436;2023-06-14T03:48:55;95758.41;;;17.97;42.18
10476;BME280;26166;48.264;11.436;2023-06-14T03:51:57;95759.69;;;17.94;42.15
10476;BME280;26166;48.264;11.436;2023-06-14T03:54:57;95766.84;;;17.94;42.37
10476;BME280;26166;48.264;11.436;2023-06-14T03:57:59;95764.41;;;17.92;42.39
10476;BME280;26166;48.264;11.436;2023-06-14T04:00:59;95765.44;;;17.91;42.50
10476;BME280;26166;48.264;11.436;2023-06-14T04:04:00;95776.31;;;17.89;42.65
10476;BME280;26166;48.264;11.436;2023-06-14T04:07:01;95773.66;;;17.89;42.67
10476;BME280;26166;48.264;11.436;2023-06-14T04:10:03;95779.75;;;17.90;42.70
10476;BME280;26166;48.264;11.436;2023-06-14T04:13:03;95781.63;;;17.89;42.87
10476;BME280;26166;48.264;11.436;2023-06-14T04:16:04;95786.13;;;17.89;42.67
10476;BME280;26166;48.264;11.436;2023-06-14T04:19:06;95790.63;;;17.88;42.93
10476;BME280;26166;48.264;11.436;2023-06-14T04:22:06;95800.41;;;17.88;43.03
10476;BME280;26166;48.264;11.436;2023-06-14T04:25:06;95790.84;;;17.87;42.90
10476;BME280;26166;48.264;11.436;2023-06-14T04:28:06;95794.28;;;17.87;43.11
10476;BME280;26166;48.264;11.436;2023-06-14T04:31:11;95796.94;;;17.87;43.24
10476;BME280;26166;48.264;11.436;2023-06-14T04:34:12;95796.94;;;17.87;43.44
10476;BME280;26166;48.264;11.436;2023-06-14T04:37:16;95797.75;;;17.88;43.43
10476;BME280;26166;48.264;11.436;2023-06-14T04:40:17;95802.06;;;17.89;43.42
10476;BME280;26166;48.264;11.436;2023-06-14T04:43:17;95798.59;;;17.88;43.34
10476;BME280;26166;48.264;11.436;2023-06-14T04:46:18;95801.25;;;17.88;43.39
10476;BME280;26166;48.264;11.436;2023-06-14T04:49:18;95810.03;;;17.89;43.40
10476;BME280;26166;48.264;11.436;2023-06-14T04:52:18;95810.84;;;17.89;43.51
10476;BME280;26166;48.264;11.436;2023-06-14T04:55:20;95812.69;;;17.89;43.47
10476;BME280;26166;48.264;11.436;2023-06-14T04:58:21;95814.75;;;17.87;43.70
10476;BME280;26166;48.264;11.436;2023-06-14T05:01:21;95812.88;;;17.87;43.82
10476;BME280;26166;48.264;11.436;2023-06-14T05:04:23;95820.88;;;17.87;43.80
10476;BME280;26166;48.264;11.436;2023-06-14T05:07:23;95826.41;;;17.86;43.61
10476;BME280;26166;48.264;11.436;2023-06-14T05:10:24;95829.31;;;17.84;43.77
10476;BME280;26166;48.264;11.436;2023-06-14T05:13:24;95824.41;;;17.81;43.66
10476;BME280;26166;48.264;11.436;2023-06-14T05:16:27;95836.09;;;17.80;43.81
10476;BME280;26166;48.264;11.436;2023-06-14T05:19:29;95825.91;;;17.77;43.72
10476;BME280;26166;48.264;11.436;2023-06-14T05:22:29;95833.63;;;17.79;43.83
10476;BME280;26166;48.264;11.436;2023-06-14T05:25:29;95844.25;;;17.79;43.69
10476;BME280;26166;48.264;11.436;2023-06-14T05:28:30;95841.03;;;17.77;43.92
10476;BME280;26166;48.264;11.436;2023-06-14T05:31:30;95842.28;;;17.74;43.84
10476;BME280;26166;48.264;11.436;2023-06-14T05:34:31;95845.72;;;17.75;43.90
10476;BME280;26166;48.264;11.436;2023-06-14T05:37:31;95844.50;;;17.77;43.93
10476;BME280;26166;48.264;11.436;2023-06-14T05:40:31;95838.13;;;17.78;44.09
10476;BME280;26166;48.264;11.436;2023-06-14T05:43:31;95847.16;;;17.77;43.91
10476;BME280;26166;48.264;11.436;2023-06-14T05:46:32;95842.63;;;17.78;43.78
10476;BME280;26166;48.264;11.436;2023-06-14T05:49:32;95843.44;;;17.78;43.78
10476;BME280;26166;48.264;11.436;2023-06-14T05:52:32;95844.50;;;17.77;43.85
10476;BME280;26166;48.264;11.436;2023-06-14T05:55:32;95845.53;;;17.76;43.87
10476;BME280;26166;48.264;11.436;2023-06-14T05:58:32;95845.72;;;17.75;43.83
10476;BME280;26166;48.264;11.436;2023-06-14T06:01:32;95841.25;;;17.75;43.92
10476;BME280;26166;48.264;11.436;2023-06-14T06:04:33;95835.72;;;17.77;43.93
10476;BME280;26166;48.264;11.436;2023-06-14T06:07:34;95841.84;;;17.77;43.94
10476;BME280;26166;48.264;11.436;2023-06-14T06:10:34;95845.91;;;17.80;44.11
10476;BME280;26166;48.264;11.436;2023-06-14T06:13:34;95848.34;;;17.81;44.07
10476;BME280;26166;48.264;11.436;2023-06-14T06:16:35;95851.56;;;17.83;44.00
10476;BME280;26166;48.264;11.436;2023-06-14T06:19:35;95856.44;;;17.86;44.00
10476;BME280;26166;48.264;11.436;2023-06-14T06:22:35;95857.25;;;17.87;44.05
10476;BME280;26166;48.264;11.436;2023-06-14T06:25:35;95856.22;;;17.88;44.12
10476;BME280;26166;48.264;11.436;2023-06-14T06:28:36;95862.13;;;17.90;43.98
10476;BME280;26166;48.264;11.436;2023-06-14T06:31:36;95863.50;;;17.93;43.90
10476;BME280;26166;48.264;11.436;2023-06-14T06:34:36;95865.16;;;17.94;43.85
10476;BME280;26166;48.264;11.436;2023-06-14T06:37:37;95867.34;;;17.97;43.70
10476;BME280;26166;48.264;11.436;2023-06-14T06:40:37;95867.16;;;17.98;43.56
10476;BME280;26166;48.264;11.436;2023-06-14T06:43:37;95867.72;;;18.00;43.57
10476;BME280;26166;48.264;11.436;2023-06-14T06:46:38;95866.91;;;18.00;43.44
10476;BME280;26166;48.264;11.436;2023-06-14T06:49:40;95872.00;;;18.01;43.49
10476;BME280;26166;48.264;11.436;2023-06-14T06:52:40;95873.41;;;18.04;43.46
10476;BME280;26166;48.264;11.436;2023-06-14T06:55:40;95875.41;;;18.08;43.51
10476;BME280;26166;48.264;11.436;2023-06-14T06:58:40;95876.22;;;18.09;43.52
10476;BME280;26166;48.264;11.436;2023-06-14T07:01:41;95878.44;;;18.12;43.44
10476;BME280;26166;48.264;11.436;2023-06-14T07:04:41;95873.69;;;18.14;43.50
10476;BME280;26166;48.264;11.436;2023-06-14T07:07:41;95873.25;;;18.17;43.44
10476;BME280;26166;48.264;11.436;2023-06-14T07:10:41;95867.50;;;18.20;43.47
10476;BME280;26166;48.264;11.436;2023-06-14T07:13:41;95865.41;;;18.22;43.30
10476;BME280;26166;48.264;11.436;2023-06-14T07:16:42;95880.94;;;18.25;43.42
10476;BME280;26166;48.264;11.436;2023-06-14T07:19:43;95880.50;;;18.28;43.32
10476;BME280;26166;48.264;11.436;2023-06-14T07:22:43;95883.72;;;18.30;43.44
10476;BME280;26166;48.264;11.436;2023-06-14T07:25:43;95888.59;;;18.33;43.40
10476;BME280;26166;48.264;11.436;2023-06-14T07:28:43;95892.66;;;18.36;43.32
10476;BME280;26166;48.264;11.436;2023-06-14T07:31:44;95897.53;;;18.39;43.23
10476;BME280;26166;48.264;11.436;2023-06-14T07:34:45;95893.00;;;18.39;43.31
10476;BME280;26166;48.264;11.436;2023-06-14T07:37:45;95892.56;;;18.43;43.17
10476;BME280;26166;48.264;11.436;2023-06-14T07:40:46;95895.81;;;18.45;43.01
10476;BME280;26166;48.264;11.436;2023-06-14T07:43:47;95900.91;;;18.46;43.11
10476;BME280;26166;48.264;11.436;2023-06-14T07:46:47;95891.91;;;18.47;42.89
10476;BME280;26166;48.264;11.436;2023-06-14T07:49:49;95902.31;;;18.49;42.95
10476;BME280;26166;48.264;11.436;2023-06-14T07:52:49;95894.94;;;18.51;42.93
10476;BME280;26166;48.264;11.436;2023-06-14T07:55:49;95902.66;;;18.52;43.02
10476;BME280;26166;48.264;11.436;2023-06-14T07:58:50;95894.44;;;18.54;42.90
10476;BME280;26166;48.264;11.436;2023-06-14T08:01:50;95903.03;;;18.56;42.81
10476;BME280;26166;48.264;11.436;2023-06-14T08:04:51;95899.34;;;18.57;42.84
10476;BME280;26166;48.264;11.436;2023-06-14T08:07:51;95897.72;;;18.56;42.84
10476;BME280;26166;48.264;11.436;2023-06-14T08:10:51;95892.97;;;18.58;42.73
10476;BME280;26166;48.264;11.436;2023-06-14T08:13:51;95898.88;;;18.60;42.63
10476;BME280;26166;48.264;11.436;2023-06-14T08:16:52;95898.66;;;18.61;42.66
10476;BME280;26166;48.264;11.436;2023-06-14T08:19:52;95903.75;;;18.63;42.65
10476;BME280;26166;48.264;11.436;2023-06-14T08:22:57;95900.88;;;18.64;42.60
10476;BME280;26166;48.264;11.436;2023-06-14T08:25:58;95903.28;;;18.66;42.48
10476;BME280;26166;48.264;11.436;2023-06-14T08:28:58;95909.19;;;18.68;42.54
10476;BME280;26166;48.264;11.436;2023-06-14T08:31:58;95906.13;;;18.71;42.50
10476;BME280;26166;48.264;11.436;2023-06-14T08:34:59;95909.81;;;18.70;42.31
10476;BME280;26166;48.264;11.436;2023-06-14T08:37:59;95910.63;;;18.71;42.48
10476;BME280;26166;48.264;11.436;2023-06-14T08:40:59;95920.03;;;18.73;42.46
10476;BME280;26166;48.264;11.436;2023-06-14T08:44:00;95915.50;;;18.74;42.33
10476;BME280;26166;48.264;11.436;2023-06-14T08:47:01;95923.25;;;18.75;41.93
10476;BME280;26166;48.264;11.436;2023-06-14T08:50:03;95923.25;;;18.75;42.14
10476;BME280;26166;48.264;11.436;2023-06-14T08:53:04;95922.44;;;18.75;42.24
10476;BME280;26166;48.264;11.436;2023-06-14T08:56:05;95922.22;;;18.76;42.08
10476;BME280;26166;48.264;11.436;2023-06-14T08:59:07;95922.22;;;18.76;42.05
10476;BME280;26166;48.264;11.436;2023-06-14T09:02:08;95921.19;;;18.77;42.12
10476;BME280;26166;48.264;11.436;2023-06-14T09:05:13;95914.81;;;18.78;42.19
10476;BME280;26166;48.264;11.436;2023-06-14T09:08:13;95911.13;;;18.79;42.19
10476;BME280;26166;48.264;11.436;2023-06-14T09:11:14;95918.66;;;18.82;42.05
10476;BME280;26166;48.264;11.436;2023-06-14T09:14:14;95912.28;;;18.83;42.04
10476;BME280;26166;48.264;11.436;2023-06-14T09:17:15;95918.44;;;18.84;41.81
10476;BME280;26166;48.264;11.436;2023-06-14T09:20:15;95927.22;;;18.84;41.84
10476;BME280;26166;48.264;11.436;2023-06-14T09:23:21;95928.84;;;18.85;41.63
10476;BME280;26166;48.264;11.436;2023-06-14T09:26:22;95923.50;;;18.85;41.77
10476;BME280;26166;48.264;11.436;2023-06-14T09:29:23;95929.69;;;18.86;41.80
10476;BME280;26166;48.264;11.436;2023-06-14T09:32:23;95931.28;;;18.87;41.70
10476;BME280;26166;48.264;11.436;2023-06-14T09:35:24;95934.75;;;18.87;41.60
10476;BME280;26166;48.264;11.436;2023-06-14T09:38:25;95937.41;;;18.87;41.58
10476;BME280;26166;48.264;11.436;2023-06-14T09:41:35;95932.09;;;18.87;41.51
10476;BME280;26166;48.264;11.436;2023-06-14T09:44:36;95937.19;;;18.89;41.40
10476;BME280;26166;48.264;11.436;2023-06-14T09:47:36;95936.13;;;18.90;41.37
10476;BME280;26166;48.264;11.436;2023-06-14T09:50:36;95933.28;;;18.92;41.33
10476;BME280;26166;48.264;11.436;2023-06-14T09:53:36;95940.22;;;18.93;41.37
10476;BME280;26166;48.264;11.436;2023-06-14T09:56:37;95942.63;;;18.94;41.29
10476;BME280;26166;48.264;11.436;2023-06-14T09:59:41;95939.97;;;18.94;41.15
10476;BME280;26166;48.264;11.436;2023-06-14T10:02:42;95938.13;;;18.95;41.28
10476;BME280;26166;48.264;11.436;2023-06-14T10:05:47;95931.53;;;18.97;40.97
10476;BME280;26166;48.264;11.436;2023-06-14T10:08:50;95928.66;;;18.99;40.63
10476;BME280;26166;48.264;11.436;2023-06-14T10:11:52;95930.28;;;19.00;40.54
10476;BME280;26166;48.264;11.436;2023-06-14T10:14:52;95929.25;;;19.01;40.32
10476;BME280;26166;48.264;11.436;2023-06-14T10:17:55;95929.00;;;19.02;40.25
10476;BME280;26166;48.264;11.436;2023-06-14T10:24:17;95928.19;;;19.02;39.89
10476;BME280;26166;48.264;11.436;2023-06-14T10:27:18;95914.88;;;19.02;40.01
10476;BME280;26166;48.264;11.436;2023-06-14T10:30:25;95913.84;;;19.03;39.90
10476;BME280;26166;48.264;11.436;2023-06-14T10:33:25;95929.81;;;19.03;39.72
10476;BME280;26166;48.264;11.436;2023-06-14T10:39:26;95918.97;;;19.04;39.51
10476;BME280;26166;48.264;11.436;2023-06-14T10:42:27;95923.47;;;19.04;39.45
10476;BME280;26166;48.264;11.436;2023-06-14T10:45:28;95923.25;;;19.05;39.63
10476;BME280;26166;48.264;11.436;2023-06-14T10:48:31;95916.28;;;19.04;39.46
10476;BME280;26166;48.264;11.436;2023-06-14T10:51:38;95916.28;;;19.04;39.42
10476;BME280;26166;48.264;11.436;2023-06-14T10:54:59;95919.78;;;19.05;39.47
10476;BME280;26166;48.264;11.436;2023-06-14T10:57:59;95924.50;;;19.03;39.47
10476;BME280;26166;48.264;11.436;2023-06-14T11:01:00;95919.16;;;19.03;39.59
10476;BME280;26166;48.264;11.436;2023-06-14T11:04:06;95914.88;;;19.02;39.81
10476;BME280;26166;48.264;11.436;2023-06-14T11:07:10;95915.94;;;19.01;39.83
10476;BME280;26166;48.264;11.436;2023-06-14T11:13:36;95911.66;;;19.00;39.69
10476;BME280;26166;48.264;11.436;2023-06-14T11:16:36;95916.75;;;19.01;39.63
10476;BME280;26166;48.264;11.436;2023-06-14T11:19:36;95921.63;;;19.04;39.67
10476;BME280;26166;48.264;11.436;2023-06-14T11:22:43;95907.50;;;19.04;39.88
10476;BME280;26166;48.264;11.436;2023-06-14T11:25:43;95902.19;;;19.04;39.65
10476;BME280;26166;48.264;11.436;2023-06-14T11:28:43;95911.78;;;19.05;39.75
10476;BME280;26166;48.264;11.436;2023-06-14T11:31:43;95917.91;;;19.05;39.68
10476;BME280;26166;48.264;11.436;2023-06-14T11:34:46;95913.63;;;19.04;39.63
10476;BME280;26166;48.264;11.436;2023-06-14T11:37:46;95917.91;;;19.05;39.46
10476;BME280;26166;48.264;11.436;2023-06-14T11:40:47;95911.78;;;19.05;39.53
10476;BME280;26166;48.264;11.436;2023-06-14T11:43:48;95905.84;;;19.03;39.39
10476;BME280;26166;48.264;11.436;2023-06-14T11:46:52;95896.03;;;19.03;39.29
10476;BME280;26166;48.264;11.436;2023-06-14T11:49:52;95904.84;;;19.04;39.17
10476;BME280;26166;48.264;11.436;2023-06-14T11:52:56;95899.53;;;19.04;39.00
10476;BME280;26166;48.264;11.436;2023-06-14T11:55:57;95889.88;;;19.03;39.13
10476;BME280;26166;48.264;11.436;2023-06-14T11:58:57;95892.56;;;19.03;38.85
10476;BME280;26166;48.264;11.436;2023-06-14T12:01:58;95898.69;;;19.03;39.13
10476;BME280;26166;48.264;11.436;2023-06-14T12:05:03;95897.88;;;19.03;39.19
10476;BME280;26166;48.264;11.436;2023-06-14T12:08:04;95896.25;;;19.02;39.29
10476;BME280;26166;48.264;11.436;2023-06-14T12:11:11;95904.47;;;19.00;38.85
10476;BME280;26166;48.264;11.436;2023-06-14T12:14:11;95899.38;;;18.99;38.96
10476;BME280;26166;48.264;11.436;2023-06-14T12:17:11;95900.41;;;18.98;38.94
10476;BME280;26166;48.264;11.436;2023-06-14T12:20:12;95902.03;;;18.99;38.42
10476;BME280;26166;48.264;11.436;2023-06-14T12:23:13;95892.44;;;18.98;38.15
10476;BME280;26166;48.264;11.436;2023-06-14T12:26:14;95897.53;;;18.99;38.25
10476;BME280;26166;48.264;11.436;2023-06-14T12:29:15;95897.31;;;19.01;38.54
10476;BME280;26166;48.264;11.436;2023-06-14T12:32:15;95899.97;;;19.01;38.54
10476;BME280;26166;48.264;11.436;2023-06-14T12:35:16;95893.59;;;19.02;38.41
10476;BME280;26166;48.264;11.436;2023-06-14T12:38:16;95896.25;;;19.02;38.52
10476;BME280;26166;48.264;11.436;2023-06-14T12:41:16;95892.56;;;19.03;38.40
10476;BME280;26166;48.264;11.436;2023-06-14T12:44:16;95891.53;;;19.04;38.12
10476;BME280;26166;48.264;11.436;2023-06-14T12:47:16;95883.53;;;19.04;37.56
10476;BME280;26166;48.264;11.436;2023-06-14T12:50:17;95888.88;;;19.04;37.92
10476;BME280;26166;48.264;11.436;2023-06-14T12:53:17;95892.56;;;19.03;37.68
10476;BME280;26166;48.264;11.436;2023-06-14T12:56:17;95894.19;;;19.04;37.59
10476;BME280;26166;48.264;11.436;2023-06-14T12:59:17;95894.19;;;19.04;37.61
10476;BME280;26166;48.264;11.436;2023-06-14T13:02:19;95899.53;;;19.04;37.75
10476;BME280;26166;48.264;11.436;2023-06-14T13:05:21;95897.88;;;19.03;37.93
10476;BME280;26166;48.264;11.436;2023-06-14T13:08:21;95908.53;;;19.03;37.99
10476;BME280;26166;48.264;11.436;2023-06-14T13:11:22;95905.28;;;19.01;38.29
10476;BME280;26166;48.264;11.436;2023-06-14T13:14:22;95892.44;;;18.98;38.10
10476;BME280;26166;48.264;11.436;2023-06-14T13:17:22;95905.72;;;18.98;38.02
10476;BME280;26166;48.264;11.436;2023-06-14T13:20:23;95901.47;;;18.97;38.03
10476;BME280;26166;48.264;11.436;2023-06-14T13:23:23;95905.72;;;18.98;37.77
10476;BME280;26166;48.264;11.436;2023-06-14T13:26:23;95899.59;;;18.97;37.85
10476;BME280;26166;48.264;11.436;2023-06-14T13:29:24;95904.94;;;18.97;37.73
10476;BME280;26166;48.264;11.436;2023-06-14T13:32:24;95895.91;;;18.98;37.60
10476;BME280;26166;48.264;11.436;2023-06-14T13:35:25;95895.09;;;18.98;38.21
10476;BME280;26166;48.264;11.436;2023-06-14T13:38:25;95890.81;;;18.97;37.44
10476;BME280;26166;48.264;11.436;2023-06-14T13:41:26;95884.00;;;19.01;37.13
10476;BME280;26166;48.264;11.436;2023-06-14T13:44:31;95883.53;;;19.04;37.20
10476;BME280;26166;48.264;11.436;2023-06-14T13:47:31;95879.84;;;19.05;36.98
10476;BME280;26166;48.264;11.436;2023-06-14T13:50:32;95886.69;;;19.12;37.29
10476;BME280;26166;48.264;11.436;2023-06-14T13:53:32;95883.22;;;19.24;37.23
10476;BME280;26166;48.264;11.436;2023-06-14T13:56:32;95887.97;;;19.33;37.07
10476;BME280;26166;48.264;11.436;2023-06-14T13:59:32;95876.72;;;19.43;36.87
10476;BME280;26166;48.264;11.436;2023-06-14T14:02:33;95881.97;;;19.50;36.85
10476;BME280;26166;48.264;11.436;2023-06-14T14:05:33;95880.00;;;19.57;37.01
10476;BME280;26166;48.264;11.436;2023-06-14T14:08:34;95875.25;;;19.59;36.99
10476;BME280;26166;48.264;11.436;2023-06-14T14:11:35;95896.13;;;19.62;37.02
10476;BME280;26166;48.264;11.436;2023-06-14T14:14:35;95890.56;;;19.63;37.05
10476;BME280;26166;48.264;11.436;2023-06-14T14:17:36;95887.66;;;19.65;37.11
10476;BME280;26166;48.264;11.436;2023-06-14T14:20:36;95878.03;;;19.64;37.26
10476;BME280;26166;48.264;11.436;2023-06-14T14:23:36;95872.16;;;19.62;37.03
10476;BME280;26166;48.264;11.436;2023-06-14T14:26:36;95881.75;;;19.63;37.18
10476;BME280;26166;48.264;11.436;2023-06-14T14:29:37;95881.75;;;19.63;37.17
10476;BME280;26166;48.264;11.436;2023-06-14T14:32:37;95880.16;;;19.62;37.17
10476;BME280;26166;48.264;11.436;2023-06-14T14:35:37;95881.75;;;19.63;37.25
10476;BME280;26166;48.264;11.436;2023-06-14T14:38:38;95885.47;;;19.62;37.09
10476;BME280;26166;48.264;11.436;2023-06-14T14:41:38;95887.09;;;19.63;37.28
10476;BME280;26166;48.264;11.436;2023-06-14T14:44:39;95886.28;;;19.62;37.19
10476;BME280;26166;48.264;11.436;2023-06-14T14:47:40;95896.69;;;19.64;37.29
10476;BME280;26166;48.264;11.436;2023-06-14T14:50:40;95892.41;;;19.63;37.37
10476;BME280;26166;48.264;11.436;2023-06-14T14:53:40;95893.47;;;19.62;37.29
10476;BME280;26166;48.264;11.436;2023-06-14T14:56:40;95886.94;;;19.58;37.22
10476;BME280;26166;48.264;11.436;2023-06-14T14:59:41;95885.91;;;19.59;37.39
10476;BME280;26166;48.264;11.436;2023-06-14T15:02:41;95884.28;;;19.58;37.22
10476;BME280;26166;48.264;11.436;2023-06-14T15:05:41;95878.34;;;19.56;37.26
10476;BME280;26166;48.264;11.436;2023-06-14T15:08:41;95883.13;;;19.54;37.42
10476;BME280;26166;48.264;11.436;2023-06-14T15:11:41;95883.13;;;19.54;37.58
10476;BME280;26166;48.264;11.436;2023-06-14T15:14:44;95895.38;;;19.55;37.62
10476;BME280;26166;48.264;11.436;2023-06-14T15:17:44;95900.72;;;19.55;37.58
10476;BME280;26166;48.264;11.436;2023-06-14T15:20:44;95888.44;;;19.54;37.67
10476;BME280;26166;48.264;11.436;2023-06-14T15:23:47;95888.44;;;19.54;37.88
10476;BME280;26166;48.264;11.436;2023-06-14T15:26:48;95893.78;;;19.54;37.47
10476;BME280;26166;48.264;11.436;2023-06-14T15:29:48;95893.78;;;19.54;37.79
10476;BME280;26166;48.264;11.436;2023-06-14T15:32:48;95898.50;;;19.52;37.88
10476;BME280;26166;48.264;11.436;2023-06-14T15:35:49;95891.34;;;19.52;37.79
10476;BME280;26166;48.264;11.436;2023-06-14T15:38:49;95888.91;;;19.51;37.87
10476;BME280;26166;48.264;11.436;2023-06-14T15:41:50;95895.03;;;19.51;37.77
10476;BME280;26166;48.264;11.436;2023-06-14T15:44:51;95888.91;;;19.51;37.96
10476;BME280;26166;48.264;11.436;2023-06-14T15:47:51;95891.00;;;19.49;37.82
10476;BME280;26166;48.264;11.436;2023-06-14T15:50:51;95890.19;;;19.48;37.57
10476;BME280;26166;48.264;11.436;2023-06-14T15:53:52;95883.22;;;19.47;37.83
10476;BME280;26166;48.264;11.436;2023-06-14T15:56:52;95888.78;;;19.46;37.80
10476;BME280;26166;48.264;11.436;2023-06-14T15:59:52;95890.66;;;19.45;37.51